Biotrans — JWPN — position and weather

sailwx.info

Track history (hours):
 
Tides and Currents Weather Stations Pressure Air Temp Water Temp Dewpoint Dewpoint Depression Visibility Wind Speed Wind Dir Waves Ship Positions

Biotrans

Last reported at 2016-Apr-29 03:31 UTC. Time now 2016-Apr-29 06:03 UTC.
Position N 63°30' E 009°04'.

Length 55 m; draft 5.5 m.

Type: Cargo ship. MMSI: 259260000.

Date/timePositionNaut miles runAvg speedWind from/ knotsBaromVisibWave heightAir tempDewpointWater temp
2016-Apr-29 03:31N 63°30' E 009°04'10 9.7
2016-Apr-29 02:26N 63°35' E 009°24'8 9.5
2016-Apr-29 01:33N 63°42' E 009°31'7 7.4
2016-Apr-29 00:33N 63°46' E 009°46'0 0.0
2016-Apr-28 23:34N 63°46' E 009°46'0 0.0
2016-Apr-28 22:34N 63°46' E 009°46'0 0.0
2016-Apr-28 21:33N 63°46' E 009°46'0 0.0
2016-Apr-28 20:33N 63°46' E 009°46'0 0.0
2016-Apr-28 19:33N 63°46' E 009°46'0 0.0
2016-Apr-28 18:34N 63°46' E 009°46'0 0.0
2016-Apr-28 17:34N 63°46' E 009°46'1 0.7
2016-Apr-28 16:33N 63°46' E 009°44'5 4.9
2016-Apr-28 15:33N 63°49' E 009°36'9 8.9
2016-Apr-28 14:33N 63°54' E 009°52'1 0.1
2016-Apr-28 06:14N 63°55' E 009°53'54 9.2
2016-Apr-28 00:20N 64°42' E 010°55'7 9.1
2016-Apr-27 23:33N 64°48' E 011°03'2 2.1
2016-Apr-27 22:33N 64°49' E 011°08'10 9.7
2016-Apr-27 21:33N 64°55' E 011°24'1110.3
2016-Apr-27 20:32N 65°03' E 011°43'1110.4
2016-Apr-27 19:30N 65°12' E 011°53'62 2.3
2016-Apr-26 16:28N 66°11' E 012°41'2 1.9
2016-Apr-26 15:29N 66°10' E 012°41'8 8.2
2016-Apr-26 14:33N 66°17' E 012°43'8 8.2
2016-Apr-26 13:32N 66°23' E 012°57'1 0.8
2016-Apr-26 12:32N 66°24' E 012°58'1 0.5
2016-Apr-26 11:32N 66°25' E 012°57'0 0.0
2016-Apr-26 10:33N 66°25' E 012°57'0 0.0
2016-Apr-26 09:28N 66°25' E 012°57'0 0.0
2016-Apr-26 08:31N 66°25' E 012°57'3 2.6
2016-Apr-26 07:29N 66°27' E 012°59'6 5.6
2016-Apr-26 06:28N 66°30' E 012°46'40 7.6
2016-Apr-26 01:15N 67°05' E 013°35'6 8.8
2016-Apr-26 00:33N 67°08' E 013°48'8 7.9
2016-Apr-25 23:34N 67°13' E 014°04'8 7.7
2016-Apr-25 22:33N 67°19' E 014°17'8 7.8
2016-Apr-25 21:33N 67°25' E 014°29'18 7.6
2016-Apr-25 19:13N 67°35' E 015°07'2 2.0
2016-Apr-25 18:09N 67°33' E 015°10'5 7.6
2016-Apr-25 17:29N 67°36' E 014°59'8 8.4
2016-Apr-25 16:33N 67°38' E 014°39'8 7.6
2016-Apr-25 15:33N 67°45' E 014°31'107 8.9
2016-Apr-25 03:33N 69°07' E 017°37'9 9.4
2016-Apr-25 02:33N 69°12' E 018°01'  
2016-Apr-21 05:28N 69°19' E 018°00'8 9.0
2016-Apr-21 04:33N 69°11' E 018°01'10 9.7
2016-Apr-21 03:33N 69°07' E 017°37'107 5.8
2016-Apr-20 09:12N 67°44' E 014°31'7 9.3
2016-Apr-20 08:28N 67°37' E 014°32'9 9.3
2016-Apr-20 07:33N 67°29' E 014°28'9 9.3
2016-Apr-20 06:33N 67°20' E 014°20'10 9.6
2016-Apr-20 05:33N 67°12' E 014°06'9 9.2
2016-Apr-20 04:33N 67°04' E 013°54'9 9.3
2016-Apr-20 03:33N 66°59' E 013°35'10 8.2
2016-Apr-20 02:23N 66°51' E 013°20'24 8.6
2016-Apr-19 23:33N 66°28' E 012°59'9 8.7
2016-Apr-19 22:33N 66°19' E 012°57'62 3.9
2016-Apr-19 06:30N 65°21' E 012°03'9 9.0
2016-Apr-19 05:33N 65°13' E 011°54'8 8.5
2016-Apr-19 04:33N 65°05' E 011°47'8 8.1
2016-Apr-19 03:33N 64°59' E 011°35'  
Track history (hours):
 
Tides and Currents Weather Stations Pressure Air Temp Water Temp Dewpoint Dewpoint Depression Visibility Wind Speed Wind Dir Waves Ship Positions

Biotrans

Last reported at 2016-Apr-29 03:31 UTC. Time now 2016-Apr-29 06:03 UTC.
Position N 63°30' E 009°04'.

Length 55 m; draft 5.5 m.

Type: Cargo ship. MMSI: 259260000.

Date/timePositionNaut miles runAvg speedWind from/ knotsBaromVisibWave heightAir tempDewpointWater temp
2016-Apr-29 03:31N 63°30' E 009°04'10 9.7
2016-Apr-29 02:26N 63°35' E 009°24'8 9.5
2016-Apr-29 01:33N 63°42' E 009°31'7 7.4
2016-Apr-29 00:33N 63°46' E 009°46'0 0.0
2016-Apr-28 23:34N 63°46' E 009°46'0 0.0
2016-Apr-28 22:34N 63°46' E 009°46'0 0.0
2016-Apr-28 21:33N 63°46' E 009°46'0 0.0
2016-Apr-28 20:33N 63°46' E 009°46'0 0.0
2016-Apr-28 19:33N 63°46' E 009°46'0 0.0
2016-Apr-28 18:34N 63°46' E 009°46'0 0.0
2016-Apr-28 17:34N 63°46' E 009°46'1 0.7
2016-Apr-28 16:33N 63°46' E 009°44'5 4.9
2016-Apr-28 15:33N 63°49' E 009°36'9 8.9
2016-Apr-28 14:33N 63°54' E 009°52'1 0.1
2016-Apr-28 06:14N 63°55' E 009°53'54 9.2
2016-Apr-28 00:20N 64°42' E 010°55'7 9.1
2016-Apr-27 23:33N 64°48' E 011°03'2 2.1
2016-Apr-27 22:33N 64°49' E 011°08'10 9.7
2016-Apr-27 21:33N 64°55' E 011°24'1110.3
2016-Apr-27 20:32N 65°03' E 011°43'1110.4
2016-Apr-27 19:30N 65°12' E 011°53'62 2.3
2016-Apr-26 16:28N 66°11' E 012°41'2 1.9
2016-Apr-26 15:29N 66°10' E 012°41'8 8.2
2016-Apr-26 14:33N 66°17' E 012°43'8 8.2
2016-Apr-26 13:32N 66°23' E 012°57'1 0.8
2016-Apr-26 12:32N 66°24' E 012°58'1 0.5
2016-Apr-26 11:32N 66°25' E 012°57'0 0.0
2016-Apr-26 10:33N 66°25' E 012°57'0 0.0
2016-Apr-26 09:28N 66°25' E 012°57'0 0.0
2016-Apr-26 08:31N 66°25' E 012°57'3 2.6
2016-Apr-26 07:29N 66°27' E 012°59'6 5.6
2016-Apr-26 06:28N 66°30' E 012°46'40 7.6
2016-Apr-26 01:15N 67°05' E 013°35'6 8.8
2016-Apr-26 00:33N 67°08' E 013°48'8 7.9
2016-Apr-25 23:34N 67°13' E 014°04'8 7.7
2016-Apr-25 22:33N 67°19' E 014°17'8 7.8
2016-Apr-25 21:33N 67°25' E 014°29'18 7.6
2016-Apr-25 19:13N 67°35' E 015°07'2 2.0
2016-Apr-25 18:09N 67°33' E 015°10'5 7.6
2016-Apr-25 17:29N 67°36' E 014°59'8 8.4
2016-Apr-25 16:33N 67°38' E 014°39'8 7.6
2016-Apr-25 15:33N 67°45' E 014°31'107 8.9
2016-Apr-25 03:33N 69°07' E 017°37'9 9.4
2016-Apr-25 02:33N 69°12' E 018°01'  
2016-Apr-21 05:28N 69°19' E 018°00'8 9.0
2016-Apr-21 04:33N 69°11' E 018°01'10 9.7
2016-Apr-21 03:33N 69°07' E 017°37'107 5.8
2016-Apr-20 09:12N 67°44' E 014°31'7 9.3
2016-Apr-20 08:28N 67°37' E 014°32'9 9.3
2016-Apr-20 07:33N 67°29' E 014°28'9 9.3
2016-Apr-20 06:33N 67°20' E 014°20'10 9.6
2016-Apr-20 05:33N 67°12' E 014°06'9 9.2
2016-Apr-20 04:33N 67°04' E 013°54'9 9.3
2016-Apr-20 03:33N 66°59' E 013°35'10 8.2
2016-Apr-20 02:23N 66°51' E 013°20'24 8.6
2016-Apr-19 23:33N 66°28' E 012°59'9 8.7
2016-Apr-19 22:33N 66°19' E 012°57'62 3.9
2016-Apr-19 06:30N 65°21' E 012°03'9 9.0
2016-Apr-19 05:33N 65°13' E 011°54'8 8.5
2016-Apr-19 04:33N 65°05' E 011°47'8 8.1
2016-Apr-19 03:33N 64°59' E 011°35'  

Dump ship's entire track history